createdAt,value
2022-08-09T00:00:11.895Z,22.00
2022-08-09T00:02:42.953Z,22.00
2022-08-09T00:06:18.424Z,22.00
2022-08-09T00:08:09.973Z,22.00
2022-08-09T00:10:38.544Z,22.00
2022-08-09T00:13:16.922Z,21.90
2022-08-09T00:15:57.860Z,21.80
2022-08-09T00:18:29.152Z,21.70
2022-08-09T00:20:55.931Z,21.70
2022-08-09T00:23:55.083Z,21.70
2022-08-09T00:26:14.229Z,21.70
2022-08-09T00:28:52.720Z,21.70
2022-08-09T00:31:50.542Z,21.60
2022-08-09T00:34:13.537Z,21.60
2022-08-09T00:36:41.689Z,21.60
2022-08-09T00:40:01.813Z,21.50
2022-08-09T00:44:14.815Z,21.50
2022-08-09T00:44:47.024Z,21.40
2022-08-09T00:47:15.587Z,21.50
2022-08-09T00:49:43.722Z,21.50
2022-08-09T00:52:22.761Z,21.50
2022-08-09T00:55:01.815Z,21.40
2022-08-09T00:57:35.741Z,21.40
2022-08-09T01:00:21.391Z,21.40
2022-08-09T01:03:06.233Z,21.40
2022-08-09T01:05:55.701Z,21.40
2022-08-09T01:08:40.597Z,21.40
2022-08-09T01:11:38.060Z,21.30
2022-08-09T01:14:21.073Z,21.20
2022-08-09T01:16:55.222Z,21.10
2022-08-09T01:19:51.607Z,21.20
2022-08-09T01:22:33.972Z,21.20
2022-08-09T01:25:07.292Z,21.10
2022-08-09T01:27:38.926Z,20.90
2022-08-09T01:30:09.085Z,20.90
2022-08-09T01:32:58.215Z,20.90
2022-08-09T01:35:38.614Z,20.90
2022-08-09T01:38:18.457Z,20.90
2022-08-09T01:40:52.456Z,20.90
2022-08-09T01:43:31.645Z,20.90
2022-08-09T01:46:18.257Z,20.80
2022-08-09T01:48:55.374Z,20.80
2022-08-09T01:51:26.214Z,20.70
2022-08-09T01:53:57.972Z,20.60
2022-08-09T01:56:26.267Z,20.60
2022-08-09T01:58:55.325Z,20.70
2022-08-09T02:01:30.574Z,20.60
2022-08-09T02:04:14.984Z,20.50
2022-08-09T02:07:04.186Z,20.50
2022-08-09T02:09:42.296Z,20.40
2022-08-09T02:12:18.037Z,20.50
2022-08-09T02:14:52.019Z,20.50
2022-08-09T02:17:59.948Z,20.50
2022-08-09T02:20:25.054Z,20.40
2022-08-09T02:23:17.157Z,20.40
2022-08-09T02:25:55.929Z,20.30
2022-08-09T02:28:31.801Z,20.30
2022-08-09T02:31:25.956Z,20.20
2022-08-09T02:34:13.346Z,20.20
2022-08-09T02:36:54.218Z,20.30
2022-08-09T02:39:39.705Z,20.30
2022-08-09T02:42:17.445Z,20.30
2022-08-09T02:44:56.828Z,20.20
2022-08-09T02:47:24.549Z,20.30
2022-08-09T02:50:01.813Z,20.20
2022-08-09T02:52:37.852Z,20.30
2022-08-09T02:55:20.010Z,20.20
2022-08-09T02:58:00.624Z,20.10
2022-08-09T03:00:58.069Z,20.10
2022-08-09T03:04:12.745Z,20.10
2022-08-09T03:06:14.858Z,20.20
2022-08-09T03:08:46.177Z,20.10
2022-08-09T03:11:29.734Z,20.10
2022-08-09T03:14:15.995Z,20.00
2022-08-09T03:16:47.588Z,20.00
2022-08-09T03:19:59.482Z,20.00
2022-08-09T03:22:12.472Z,20.00
2022-08-09T03:25:00.264Z,20.00
2022-08-09T03:27:50.479Z,20.00
2022-08-09T03:30:30.026Z,19.90
2022-08-09T03:33:05.646Z,19.90
2022-08-09T03:35:44.335Z,19.80
2022-08-09T03:38:33.477Z,19.80
2022-08-09T03:41:05.043Z,19.80
2022-08-09T03:43:36.522Z,19.80
2022-08-09T03:46:20.235Z,19.80
2022-08-09T03:48:55.025Z,19.60
2022-08-09T03:51:57.035Z,19.50
2022-08-09T03:54:11.501Z,19.50
2022-08-09T03:56:42.799Z,19.50
2022-08-09T03:59:20.979Z,19.50
2022-08-09T04:02:00.336Z,19.60
2022-08-09T04:04:36.261Z,19.60
2022-08-09T04:07:06.155Z,19.70
2022-08-09T04:09:48.233Z,19.80
2022-08-09T04:12:49.908Z,19.90
2022-08-09T04:15:42.637Z,19.90
2022-08-09T04:18:09.350Z,19.80
2022-08-09T04:20:48.806Z,19.80
2022-08-09T04:23:17.088Z,19.70
2022-08-09T04:25:51.690Z,19.60
2022-08-09T04:28:33.281Z,19.60
2022-08-09T04:31:10.285Z,19.60
2022-08-09T04:33:51.827Z,19.50
2022-08-09T04:36:24.527Z,19.40
2022-08-09T04:38:54.441Z,19.40
2022-08-09T04:41:23.993Z,19.30
2022-08-09T04:44:06.511Z,19.30
2022-08-09T04:46:58.786Z,19.30
2022-08-09T04:49:52.906Z,19.30
2022-08-09T04:52:26.679Z,19.30
2022-08-09T04:54:59.369Z,19.40
2022-08-09T04:57:26.893Z,19.40
2022-08-09T05:00:13.955Z,19.40
2022-08-09T05:02:48.662Z,19.40
2022-08-09T05:05:32.024Z,19.50
2022-08-09T05:08:06.930Z,19.50
2022-08-09T05:10:36.964Z,19.50
2022-08-09T05:13:04.089Z,19.60
2022-08-09T05:15:39.026Z,19.60
2022-08-09T05:18:42.430Z,19.70
2022-08-09T05:21:10.025Z,19.80
2022-08-09T05:23:57.919Z,19.80
2022-08-09T05:26:45.301Z,19.80
2022-08-09T05:29:22.075Z,19.80
2022-08-09T05:31:56.999Z,19.80
2022-08-09T05:34:30.998Z,19.90
2022-08-09T05:37:07.403Z,19.90
2022-08-09T05:39:42.870Z,19.90
2022-08-09T05:42:18.062Z,19.90
2022-08-09T05:44:52.516Z,19.90
2022-08-09T05:47:24.091Z,20.00
2022-08-09T05:50:29.862Z,20.10
2022-08-09T05:52:41.732Z,20.10
2022-08-09T05:55:20.489Z,20.20
2022-08-09T05:57:50.718Z,20.20
2022-08-09T06:00:33.295Z,20.20
2022-08-09T06:03:03.627Z,20.30
2022-08-09T06:05:54.833Z,20.30
2022-08-09T06:08:27.967Z,20.30
2022-08-09T06:10:58.165Z,20.40
2022-08-09T06:13:34.221Z,20.50
2022-08-09T06:16:05.325Z,20.40
2022-08-09T06:18:33.483Z,20.40
2022-08-09T06:21:01.306Z,20.50
2022-08-09T06:23:57.658Z,20.50
2022-08-09T06:26:20.777Z,20.50
2022-08-09T06:28:50.172Z,20.60
2022-08-09T06:31:31.096Z,20.60
2022-08-09T06:33:58.605Z,20.70
2022-08-09T06:36:29.877Z,20.80
2022-08-09T06:38:57.572Z,20.80
2022-08-09T06:42:07.620Z,20.80
2022-08-09T06:44:18.031Z,20.90
2022-08-09T06:46:49.801Z,20.80
2022-08-09T06:49:44.541Z,20.90
2022-08-09T06:52:10.329Z,21.00
2022-08-09T06:54:38.835Z,21.00
2022-08-09T06:57:11.928Z,21.00
2022-08-09T07:00:56.498Z,21.00
2022-08-09T07:02:29.202Z,21.10
2022-08-09T07:05:00.475Z,21.20
2022-08-09T07:07:59.970Z,21.20
2022-08-09T07:10:29.586Z,21.00
2022-08-09T07:12:58.405Z,21.10
2022-08-09T07:15:53.944Z,21.20
2022-08-09T07:18:17.631Z,21.30
2022-08-09T07:20:47.803Z,21.40
2022-08-09T07:23:20.035Z,21.50
2022-08-09T07:25:52.027Z,21.50
2022-08-09T07:28:28.150Z,21.50
2022-08-09T07:30:55.595Z,21.60
2022-08-09T07:33:23.284Z,21.50
2022-08-09T07:35:53.857Z,21.40
2022-08-09T07:38:23.223Z,21.40
2022-08-09T07:41:11.380Z,21.30
2022-08-09T07:43:41.199Z,21.40
2022-08-09T07:46:22.485Z,21.50
2022-08-09T07:48:59.421Z,21.60
2022-08-09T07:52:04.420Z,21.70
2022-08-09T07:54:28.313Z,21.70
2022-08-09T07:56:58.495Z,21.80
2022-08-09T07:59:45.595Z,21.80
2022-08-09T08:02:19.710Z,21.90
2022-08-09T08:04:49.440Z,22.00
2022-08-09T08:09:00.513Z,22.00
2022-08-09T08:10:10.795Z,22.00
2022-08-09T08:12:45.491Z,22.10
2022-08-09T08:15:17.885Z,22.20
2022-08-09T08:17:53.905Z,22.20
2022-08-09T08:20:30.158Z,22.20
2022-08-09T08:23:17.106Z,22.30
2022-08-09T08:25:49.734Z,22.30
2022-08-09T08:28:31.873Z,22.40
2022-08-09T08:31:00.800Z,22.40
2022-08-09T08:33:40.665Z,22.50
2022-08-09T08:36:29.076Z,22.50
2022-08-09T08:38:57.731Z,22.60
2022-08-09T08:41:24.873Z,22.50
2022-08-09T08:44:13.864Z,22.50
2022-08-09T08:46:59.489Z,22.60
2022-08-09T08:49:33.355Z,22.60
2022-08-09T08:52:10.413Z,22.70
2022-08-09T08:54:40.045Z,22.90
2022-08-09T08:57:11.623Z,22.90
2022-08-09T08:59:46.947Z,22.90
2022-08-09T09:02:31.763Z,22.90
2022-08-09T09:05:06.084Z,23.00
2022-08-09T09:07:42.721Z,23.10
2022-08-09T09:10:11.579Z,23.20
2022-08-09T09:12:39.106Z,23.40
2022-08-09T09:15:09.852Z,23.60
2022-08-09T09:17:49.083Z,23.60
2022-08-09T09:20:20.583Z,23.60
2022-08-09T09:23:01.627Z,23.80
2022-08-09T09:26:04.439Z,23.80
2022-08-09T09:29:01.996Z,23.80
2022-08-09T09:32:06.426Z,23.90
2022-08-09T09:34:18.110Z,24.10
2022-08-09T09:36:52.777Z,24.20
2022-08-09T09:39:42.761Z,24.30
2022-08-09T09:42:29.516Z,24.30
2022-08-09T09:45:06.280Z,24.50
2022-08-09T09:47:42.145Z,24.60
2022-08-09T09:50:22.836Z,24.60
2022-08-09T09:52:53.676Z,24.70
2022-08-09T09:55:32.069Z,24.80
2022-08-09T09:58:18.920Z,25.00
2022-08-09T10:00:58.490Z,25.20
2022-08-09T10:04:01.464Z,25.20
2022-08-09T10:06:43.481Z,25.30
2022-08-09T10:09:22.465Z,25.30
2022-08-09T10:12:14.747Z,25.30
2022-08-09T10:14:52.031Z,25.40
2022-08-09T10:17:54.898Z,25.50
2022-08-09T10:20:27.511Z,25.60
2022-08-09T10:23:22.814Z,25.70
2022-08-09T10:26:06.766Z,25.90
2022-08-09T10:28:39.028Z,26.10
2022-08-09T10:34:09.235Z,26.30
2022-08-09T10:36:38.751Z,26.30
2022-08-09T10:39:15.700Z,26.30
2022-08-09T10:41:43.160Z,26.40
2022-08-09T10:44:10.716Z,26.40
2022-08-09T10:48:17.211Z,26.50
2022-08-09T10:50:14.760Z,26.90
2022-08-09T10:53:05.691Z,27.10
2022-08-09T10:55:55.285Z,27.00
2022-08-09T10:58:34.785Z,27.10
2022-08-09T11:03:02.630Z,27.20
2022-08-09T11:04:27.755Z,27.30
2022-08-09T11:07:03.709Z,27.20
2022-08-09T11:09:52.581Z,27.30
2022-08-09T11:12:26.481Z,27.60
2022-08-09T11:15:18.608Z,27.80
2022-08-09T11:17:53.447Z,27.60
2022-08-09T11:20:41.561Z,27.70
2022-08-09T11:23:13.642Z,28.10
2022-08-09T11:25:47.580Z,28.20
2022-08-09T11:28:38.746Z,28.30
2022-08-09T11:31:49.488Z,28.30
2022-08-09T11:34:45.587Z,28.00
2022-08-09T11:37:27.934Z,28.20
2022-08-09T11:40:07.346Z,28.50
2022-08-09T11:42:38.719Z,28.60
2022-08-09T11:45:26.268Z,29.00
2022-08-09T11:48:26.675Z,29.10
2022-08-09T11:52:48.826Z,29.00
2022-08-09T11:54:01.832Z,29.10
2022-08-09T11:56:42.262Z,29.20
2022-08-09T11:59:30.327Z,29.40
2022-08-09T12:02:34.370Z,29.40
2022-08-09T12:04:58.871Z,29.50
2022-08-09T12:07:41.602Z,29.50
2022-08-09T12:10:14.359Z,29.60
2022-08-09T12:12:57.696Z,29.70
2022-08-09T12:15:49.729Z,29.70
2022-08-09T12:18:25.919Z,29.90
2022-08-09T12:21:00.534Z,30.00
2022-08-09T12:23:58.055Z,30.20
2022-08-09T12:26:19.837Z,30.30
2022-08-09T12:29:14.627Z,30.30
2022-08-09T12:31:59.079Z,30.40
2022-08-09T12:34:41.881Z,30.50
2022-08-09T12:37:24.004Z,30.70
2022-08-09T12:40:09.664Z,31.10
2022-08-09T12:42:39.017Z,31.20
2022-08-09T12:45:32.604Z,31.20
2022-08-09T12:47:57.159Z,31.40
2022-08-09T12:50:25.099Z,31.30
2022-08-09T12:53:09.001Z,31.30
2022-08-09T12:56:14.703Z,31.40
2022-08-09T12:58:33.967Z,31.40
2022-08-09T13:01:04.443Z,31.70
2022-08-09T13:03:56.773Z,31.90
2022-08-09T13:06:34.797Z,31.90
2022-08-09T13:09:06.282Z,31.60
2022-08-09T13:11:39.590Z,32.00
2022-08-09T13:14:42.413Z,32.10
2022-08-09T13:17:14.213Z,32.00
2022-08-09T13:20:09.774Z,32.20
2022-08-09T13:23:00.196Z,32.50
2022-08-09T13:25:21.117Z,32.40
2022-08-09T13:27:55.825Z,32.70
2022-08-09T13:31:10.865Z,33.40
2022-08-09T13:33:20.929Z,33.80
2022-08-09T13:36:37.553Z,34.70
2022-08-09T13:38:57.336Z,34.70
2022-08-09T13:41:58.698Z,35.10
2022-08-09T13:44:16.901Z,35.70
2022-08-09T13:47:26.888Z,35.50
2022-08-09T13:49:39.683Z,36.00
2022-08-09T13:52:20.881Z,35.80
2022-08-09T13:54:59.147Z,36.00
2022-08-09T13:57:36.538Z,36.40
2022-08-09T14:00:09.211Z,36.20
2022-08-09T14:02:42.696Z,36.20
2022-08-09T14:05:58.860Z,36.80
2022-08-09T14:08:15.828Z,36.80
2022-08-09T14:10:49.209Z,37.40
2022-08-09T14:13:27.754Z,37.10
2022-08-09T14:16:10.412Z,37.60
2022-08-09T14:18:45.661Z,37.40
2022-08-09T14:21:24.283Z,37.20
2022-08-09T14:23:54.629Z,37.20
2022-08-09T14:26:33.673Z,37.10
2022-08-09T14:29:08.033Z,37.40
2022-08-09T14:31:55.694Z,37.50
2022-08-09T14:34:27.564Z,37.80
2022-08-09T14:37:06.091Z,38.20
2022-08-09T14:39:47.255Z,38.50
2022-08-09T14:42:40.538Z,38.50
2022-08-09T14:46:40.308Z,38.10
2022-08-09T14:47:59.713Z,38.80
2022-08-09T14:50:32.293Z,38.40
2022-08-09T14:53:13.796Z,39.00
2022-08-09T14:55:49.824Z,39.20
2022-08-09T14:58:17.495Z,38.90
2022-08-09T15:00:48.442Z,38.70
2022-08-09T15:03:20.180Z,39.20
2022-08-09T15:05:54.801Z,39.50
2022-08-09T15:08:30.502Z,39.40
2022-08-09T15:11:00.597Z,38.80
2022-08-09T15:13:56.772Z,38.90
2022-08-09T15:16:18.573Z,38.70
2022-08-09T15:18:49.489Z,37.90
2022-08-09T15:21:55.923Z,38.00
2022-08-09T15:24:13.079Z,38.40
2022-08-09T15:26:48.300Z,38.80
2022-08-09T15:30:57.710Z,39.20
2022-08-09T15:32:29.722Z,39.50
2022-08-09T15:35:00.272Z,39.20
2022-08-09T15:38:10.747Z,39.40
2022-08-09T15:40:32.211Z,39.20
2022-08-09T15:43:01.893Z,39.10
2022-08-09T15:45:30.086Z,38.80
2022-08-09T15:48:06.481Z,38.80
2022-08-09T15:50:48.010Z,38.60
2022-08-09T15:54:02.052Z,38.70
2022-08-09T15:56:21.520Z,38.40
2022-08-09T15:58:48.557Z,37.60
2022-08-09T16:01:20.525Z,36.60
2022-08-09T16:03:50.137Z,35.90
2022-08-09T16:06:32.832Z,35.10
2022-08-09T16:09:06.756Z,34.70
2022-08-09T16:11:36.094Z,34.30
2022-08-09T16:14:08.058Z,34.10
2022-08-09T16:16:42.035Z,33.90
2022-08-09T16:19:15.499Z,33.70
2022-08-09T16:21:43.139Z,33.60
2022-08-09T16:24:33.360Z,33.30
2022-08-09T16:27:01.862Z,33.20
2022-08-09T16:29:37.333Z,33.00
2022-08-09T16:32:19.131Z,32.90
2022-08-09T16:34:58.439Z,32.90
2022-08-09T16:37:55.709Z,33.00
2022-08-09T16:40:17.123Z,32.70
2022-08-09T16:43:00.050Z,32.60
2022-08-09T16:45:32.362Z,32.50
2022-08-09T16:48:39.387Z,32.40
2022-08-09T16:50:59.301Z,32.40
2022-08-09T16:53:34.410Z,32.30
2022-08-09T16:56:03.897Z,32.20
2022-08-09T16:58:42.548Z,32.20
2022-08-09T17:01:24.598Z,32.20
2022-08-09T17:03:56.680Z,32.10
2022-08-09T17:06:29.138Z,31.90
2022-08-09T17:09:10.685Z,31.90
2022-08-09T17:11:44.728Z,32.00
2022-08-09T17:14:25.838Z,31.90
2022-08-09T17:17:00.225Z,31.80
2022-08-09T17:19:47.628Z,31.70
2022-08-09T17:22:23.631Z,31.60
2022-08-09T17:24:55.494Z,31.50
2022-08-09T17:27:23.013Z,31.40
2022-08-09T17:29:51.183Z,31.30
2022-08-09T17:32:26.699Z,31.20
2022-08-09T17:35:11.492Z,31.10
2022-08-09T17:38:14.192Z,31.10
2022-08-09T17:40:36.767Z,31.10
2022-08-09T17:43:32.012Z,31.00
2022-08-09T17:46:05.851Z,30.90
2022-08-09T17:48:52.309Z,30.80
2022-08-09T17:51:20.314Z,30.80
2022-08-09T17:53:55.081Z,30.80
2022-08-09T17:56:35.688Z,30.70
2022-08-09T17:59:09.301Z,30.50
2022-08-09T18:02:06.434Z,30.50
2022-08-09T18:04:27.721Z,30.40
2022-08-09T18:06:55.838Z,30.40
2022-08-09T18:09:25.190Z,30.30
2022-08-09T18:12:15.249Z,30.30
2022-08-09T18:14:53.886Z,30.30
2022-08-09T18:17:27.215Z,30.10
2022-08-09T18:20:55.556Z,30.10
2022-08-09T18:22:59.872Z,30.00
2022-08-09T18:25:50.711Z,30.00
2022-08-09T18:30:33.887Z,30.00
2022-08-09T18:31:07.951Z,29.80
2022-08-09T18:33:37.053Z,29.80
2022-08-09T18:36:06.995Z,29.70
2022-08-09T18:38:36.044Z,29.50
2022-08-09T18:41:02.829Z,29.40
2022-08-09T18:43:35.180Z,29.30
2022-08-09T18:46:49.544Z,29.20
2022-08-09T18:48:51.640Z,29.20
2022-08-09T18:51:38.520Z,29.10
2022-08-09T18:54:16.433Z,29.10
2022-08-09T18:56:53.818Z,29.00
2022-08-09T18:59:22.337Z,28.90
2022-08-09T19:01:54.043Z,28.90
2022-08-09T19:04:34.708Z,28.80
2022-08-09T19:07:02.088Z,28.70
2022-08-09T19:10:14.324Z,28.60
2022-08-09T19:12:22.090Z,28.60
2022-08-09T19:14:52.810Z,28.60
2022-08-09T19:17:21.245Z,28.50
2022-08-09T19:19:51.066Z,28.40
2022-08-09T19:22:29.956Z,28.40
2022-08-09T19:25:09.541Z,28.40
2022-08-09T19:27:47.778Z,28.30
2022-08-09T19:30:22.749Z,28.30
2022-08-09T19:32:55.668Z,28.20
2022-08-09T19:35:26.610Z,28.20
2022-08-09T19:37:57.830Z,28.10
2022-08-09T19:40:34.253Z,28.10
2022-08-09T19:43:05.104Z,28.00
2022-08-09T19:45:38.823Z,27.90
2022-08-09T19:48:06.840Z,27.90
2022-08-09T19:50:48.967Z,27.90
2022-08-09T19:53:20.840Z,27.70
2022-08-09T19:56:05.628Z,27.60
2022-08-09T19:58:33.217Z,27.60
2022-08-09T20:01:00.044Z,27.50
2022-08-09T20:04:09.846Z,27.50
2022-08-09T20:06:23.505Z,27.50
2022-08-09T20:08:57.249Z,27.40
2022-08-09T20:11:43.295Z,27.20
2022-08-09T20:14:20.080Z,27.30
2022-08-09T20:16:54.366Z,27.30
2022-08-09T20:19:49.275Z,27.20
2022-08-09T20:22:14.122Z,27.10
2022-08-09T20:24:42.296Z,27.10
2022-08-09T20:27:09.195Z,27.10
2022-08-09T20:29:39.352Z,27.10
2022-08-09T20:32:33.002Z,27.00
2022-08-09T20:35:02.912Z,27.00
2022-08-09T20:37:36.952Z,27.00
2022-08-09T20:40:24.724Z,26.90
2022-08-09T20:43:11.859Z,26.80
2022-08-09T20:45:59.591Z,26.80
2022-08-09T20:48:31.892Z,26.80
2022-08-09T20:51:00.269Z,26.70
2022-08-09T20:53:37.262Z,26.60
2022-08-09T20:56:20.347Z,26.60
2022-08-09T20:58:58.863Z,26.60
2022-08-09T21:01:34.296Z,26.50
2022-08-09T21:05:53.445Z,26.40
2022-08-09T21:07:11.943Z,26.40
2022-08-09T21:09:55.787Z,26.40
2022-08-09T21:15:23.424Z,26.30
2022-08-09T21:18:22.933Z,26.20
2022-08-09T21:20:54.352Z,26.20
2022-08-09T21:23:36.067Z,26.20
2022-08-09T21:26:11.398Z,26.20
2022-08-09T21:28:40.927Z,26.20
2022-08-09T21:31:49.180Z,26.10
2022-08-09T21:34:21.087Z,26.10
2022-08-09T21:36:56.554Z,26.00
2022-08-09T21:39:28.190Z,25.90
2022-08-09T21:42:10.236Z,26.00
2022-08-09T21:44:38.015Z,25.90
2022-08-09T21:47:09.231Z,25.80
2022-08-09T21:49:42.715Z,25.80
2022-08-09T21:52:18.405Z,25.80
2022-08-09T21:55:02.744Z,25.80
2022-08-09T21:57:36.931Z,25.90
2022-08-09T22:00:09.001Z,25.80
2022-08-09T22:02:36.383Z,25.70
2022-08-09T22:05:08.714Z,25.70
2022-08-09T22:07:52.291Z,25.60
2022-08-09T22:10:23.059Z,25.70
2022-08-09T22:12:52.152Z,25.60
2022-08-09T22:15:23.340Z,25.60
2022-08-09T22:18:01.431Z,25.50
2022-08-09T22:20:31.188Z,25.50
2022-08-09T22:22:58.519Z,25.50
2022-08-09T22:26:05.909Z,25.40
2022-08-09T22:28:14.800Z,25.40
2022-08-09T22:30:56.649Z,25.40
2022-08-09T22:33:24.886Z,25.30
2022-08-09T22:36:05.134Z,25.20
2022-08-09T22:38:45.718Z,25.20
2022-08-09T22:41:13.054Z,25.20
2022-08-09T22:44:03.659Z,25.20
2022-08-09T22:48:14.811Z,25.10
2022-08-09T22:49:18.497Z,25.10
2022-08-09T22:51:49.858Z,25.10
2022-08-09T22:54:27.398Z,25.00
2022-08-09T22:56:56.775Z,25.00
2022-08-09T22:59:58.022Z,25.00
2022-08-09T23:02:20.253Z,25.00
2022-08-09T23:04:53.911Z,24.90
2022-08-09T23:08:23.251Z,24.80
2022-08-09T23:10:28.034Z,24.80
2022-08-09T23:12:54.740Z,24.80
2022-08-09T23:15:23.853Z,24.70
2022-08-09T23:17:50.647Z,24.60
2022-08-09T23:20:19.794Z,24.60
2022-08-09T23:22:48.695Z,24.50
2022-08-09T23:25:15.451Z,24.50
2022-08-09T23:27:58.425Z,24.50
2022-08-09T23:30:36.833Z,24.50
2022-08-09T23:33:03.721Z,24.50
2022-08-09T23:36:06.230Z,24.40
2022-08-09T23:38:20.892Z,24.40
2022-08-09T23:40:54.171Z,24.40
2022-08-09T23:43:21.037Z,24.30
2022-08-09T23:45:50.380Z,24.30
2022-08-09T23:48:17.264Z,24.30
2022-08-09T23:50:46.222Z,24.20
2022-08-09T23:53:15.595Z,24.20
2022-08-09T23:55:49.892Z,24.10
2022-08-09T23:58:27.565Z,24.10
